Date,TemperatureHighF,TemperatureAvgF,TemperatureLowF,DewpointHighF,DewpointAvgF,DewpointLowF,HumidityHigh,HumidityAvg,HumidityLow,PressureMaxIn,PressureMinIn,WindSpeedMaxMPH,WindSpeedAvgMPH,GustSpeedMaxMPH,PrecipitationSumIn
2013-4-1,34.0,22.6,15.0,21.0,8.0,2.0,87,56,28,0.00,40.00,12,7,26,0.00
2013-4-2,39.0,24.8,9.0,8.0,3.6,-2.0,77,43,21,0.00,40.00,10,5,26,0.00
2013-4-3,43.0,28.3,12.0,18.0,6.1,1.0,68,42,19,0.00,40.00,8,5,17,0.00
2013-4-4,53.0,38.0,27.0,26.0,19.8,17.0,67,49,28,0.00,40.00,9,7,22,0.00
2013-4-5,45.0,33.3,21.0,18.0,13.2,6.0,78,47,22,0.00,40.00,8,4,15,0.00
2013-4-6,40.0,32.0,28.0,33.0,27.5,16.0,97,84,59,0.00,40.00,8,5,20,0.00
2013-4-7,42.0,35.3,29.0,33.0,29.5,26.0,97,80,56,0.00,40.00,9,6,17,0.00
2013-4-8,35.0,32.5,28.0,34.0,31.0,27.0,98,94,88,0.00,40.00,6,4,12,0.00
2013-4-9,39.0,33.6,29.0,36.0,30.1,21.0,98,88,73,0.00,40.00,9,4,25,0.00
2013-4-10,43.0,34.8,30.0,23.0,18.1,10.0,75,53,28,0.00,40.00,12,8,22,0.00
2013-4-11,34.0,30.9,27.0,25.0,16.5,4.0,92,58,27,0.00,40.00,14,10,28,0.00
2013-4-12,32.0,27.9,25.0,30.0,25.7,23.0,95,91,85,0.00,40.00,12,6,27,0.00
2013-4-13,39.0,29.3,21.0,33.0,24.5,19.0,95,83,63,0.00,40.00,9,3,15,0.00
2013-4-14,42.0,30.3,17.0,31.0,23.3,14.0,95,77,48,0.00,40.00,8,4,17,0.00
2013-4-15,56.0,42.1,32.0,39.0,30.2,21.0,98,67,30,0.00,40.00,14,8,29,0.00
2013-4-16,48.0,39.6,29.0,27.0,24.7,22.0,83,56,35,0.00,40.00,10,6,21,0.00
2013-4-17,43.0,35.8,27.0,30.0,27.0,24.0,94,72,52,0.00,40.00,10,5,18,0.00
2013-4-18,40.0,35.8,33.0,39.0,34.0,28.0,98,94,70,0.00,40.00,8,6,17,0.66
2013-4-19,37.0,31.4,22.0,36.0,26.1,12.0,98,82,58,0.00,40.00,16,9,34,0.40
2013-4-20,40.0,28.4,18.0,15.0,11.3,8.0,78,52,28,0.00,40.00,9,6,20,0.02
2013-4-21,45.0,32.2,20.0,28.0,19.6,13.0,85,63,36,0.00,40.00,12,7,24,0.00
2013-4-22,42.0,37.9,34.0,39.0,35.3,27.0,97,91,67,0.00,40.00,7,5,15,0.44
2013-4-23,43.0,35.9,28.0,35.0,30.6,25.0,98,83,56,0.00,40.00,10,6,23,0.18
2013-4-24,52.0,38.6,22.0,25.0,18.9,11.0,94,53,20,0.00,40.00,9,4,19,0.08
2013-4-25,52.0,41.3,32.0,33.0,24.6,16.0,97,57,24,0.00,40.00,10,6,23,0.22
2013-4-26,61.0,43.0,29.0,38.0,31.2,22.0,92,65,37,0.00,40.00,10,4,20,0.04
2013-4-27,70.0,52.0,30.0,47.0,39.7,29.0,95,67,42,0.00,40.00,10,5,19,0.02
2013-4-28,71.0,54.8,37.0,42.0,38.1,34.0,89,58,28,0.00,40.00,9,4,20,0.00
2013-4-29,68.0,52.1,42.0,53.0,45.6,34.0,98,80,57,0.00,40.00,8,3,16,0.07
2013-4-30,69.0,60.6,44.0,55.0,52.3,43.0,98,75,60,0.00,40.00,11,6,24,0.27